sensor_id;sensor_type;location;lat;lon;timestamp;P1;durP1;ratioP1;P2;durP2;ratioP2
49900;SDS011;35789;48.414;12.768;2024-02-21T00:00:00;9.3;;;2.9;;
49900;SDS011;35789;48.414;12.768;2024-02-21T00:05:00;9.3;;;2.9;;
49900;SDS011;35789;48.414;12.768;2024-02-21T00:10:00;9.3;;;2.9;;
49900;SDS011;35789;48.414;12.768;2024-02-21T00:15:00;9.3;;;2.9;;
49900;SDS011;35789;48.414;12.768;2024-02-21T00:20:00;9.3;;;2.9;;
49900;SDS011;35789;48.414;12.768;2024-02-21T00:25:00;9.3;;;2.9;;
49900;SDS011;35789;48.414;12.768;2024-02-21T00:30:00;9.5;;;2.9;;
49900;SDS011;35789;48.414;12.768;2024-02-21T00:35:00;9.5;;;2.9;;
49900;SDS011;35789;48.414;12.768;2024-02-21T00:40:00;9.5;;;2.9;;
49900;SDS011;35789;48.414;12.768;2024-02-21T00:45:00;9.5;;;2.9;;
49900;SDS011;35789;48.414;12.768;2024-02-21T00:50:00;9.5;;;2.9;;
49900;SDS011;35789;48.414;12.768;2024-02-21T00:55:00;9.5;;;2.9;;
49900;SDS011;35789;48.414;12.768;2024-02-21T01:00:00;9.2;;;2.6;;
49900;SDS011;35789;48.414;12.768;2024-02-21T01:05:00;9.2;;;2.6;;
49900;SDS011;35789;48.414;12.768;2024-02-21T01:10:00;9.2;;;2.6;;
49900;SDS011;35789;48.414;12.768;2024-02-21T01:15:00;9.2;;;2.6;;
49900;SDS011;35789;48.414;12.768;2024-02-21T01:20:00;9.2;;;2.6;;
49900;SDS011;35789;48.414;12.768;2024-02-21T01:25:00;9.2;;;2.6;;
49900;SDS011;35789;48.414;12.768;2024-02-21T01:30:00;10.1;;;3.3;;
49900;SDS011;35789;48.414;12.768;2024-02-21T01:35:00;10.1;;;3.3;;
49900;SDS011;35789;48.414;12.768;2024-02-21T01:40:00;10.1;;;3.3;;
49900;SDS011;35789;48.414;12.768;2024-02-21T01:45:00;10.1;;;3.3;;
49900;SDS011;35789;48.414;12.768;2024-02-21T01:50:00;10.1;;;3.3;;
49900;SDS011;35789;48.414;12.768;2024-02-21T01:55:00;10.1;;;3.3;;
49900;SDS011;35789;48.414;12.768;2024-02-21T02:00:00;7.6;;;2.6;;
49900;SDS011;35789;48.414;12.768;2024-02-21T02:05:01;7.6;;;2.6;;
49900;SDS011;35789;48.414;12.768;2024-02-21T02:10:00;7.6;;;2.6;;
49900;SDS011;35789;48.414;12.768;2024-02-21T02:15:01;7.6;;;2.6;;
49900;SDS011;35789;48.414;12.768;2024-02-21T02:20:00;7.6;;;2.6;;
49900;SDS011;35789;48.414;12.768;2024-02-21T02:25:00;7.6;;;2.6;;
49900;SDS011;35789;48.414;12.768;2024-02-21T02:30:00;10.9;;;3.4;;
49900;SDS011;35789;48.414;12.768;2024-02-21T02:35:00;10.9;;;3.4;;
49900;SDS011;35789;48.414;12.768;2024-02-21T02:40:00;10.9;;;3.4;;
49900;SDS011;35789;48.414;12.768;2024-02-21T02:45:00;10.9;;;3.4;;
49900;SDS011;35789;48.414;12.768;2024-02-21T02:50:00;10.9;;;3.4;;
49900;SDS011;35789;48.414;12.768;2024-02-21T02:55:00;10.9;;;3.4;;
49900;SDS011;35789;48.414;12.768;2024-02-21T03:00:00;9.0;;;3.0;;
49900;SDS011;35789;48.414;12.768;2024-02-21T03:10:00;9.0;;;3.0;;
49900;SDS011;35789;48.414;12.768;2024-02-21T03:15:00;9.0;;;3.0;;
49900;SDS011;35789;48.414;12.768;2024-02-21T03:20:00;9.0;;;3.0;;
49900;SDS011;35789;48.414;12.768;2024-02-21T03:25:00;9.0;;;3.0;;
49900;SDS011;35789;48.414;12.768;2024-02-21T03:30:00;6.6;;;2.6;;
49900;SDS011;35789;48.414;12.768;2024-02-21T03:35:00;6.6;;;2.6;;
49900;SDS011;35789;48.414;12.768;2024-02-21T03:40:00;6.6;;;2.6;;
49900;SDS011;35789;48.414;12.768;2024-02-21T03:45:00;6.6;;;2.6;;
49900;SDS011;35789;48.414;12.768;2024-02-21T03:50:00;6.6;;;2.6;;
49900;SDS011;35789;48.414;12.768;2024-02-21T03:55:00;6.6;;;2.6;;
49900;SDS011;35789;48.414;12.768;2024-02-21T04:00:00;7.5;;;2.5;;
49900;SDS011;35789;48.414;12.768;2024-02-21T04:05:00;7.5;;;2.5;;
49900;SDS011;35789;48.414;12.768;2024-02-21T04:10:00;7.5;;;2.5;;
49900;SDS011;35789;48.414;12.768;2024-02-21T04:15:00;7.5;;;2.5;;
49900;SDS011;35789;48.414;12.768;2024-02-21T04:20:02;7.5;;;2.5;;
49900;SDS011;35789;48.414;12.768;2024-02-21T04:25:00;7.5;;;2.5;;
49900;SDS011;35789;48.414;12.768;2024-02-21T04:30:00;8.3;;;2.6;;
49900;SDS011;35789;48.414;12.768;2024-02-21T04:35:00;8.3;;;2.6;;
49900;SDS011;35789;48.414;12.768;2024-02-21T04:40:00;8.3;;;2.6;;
49900;SDS011;35789;48.414;12.768;2024-02-21T04:45:00;8.3;;;2.6;;
49900;SDS011;35789;48.414;12.768;2024-02-21T04:50:00;8.3;;;2.6;;
49900;SDS011;35789;48.414;12.768;2024-02-21T04:55:00;8.3;;;2.6;;
49900;SDS011;35789;48.414;12.768;2024-02-21T05:00:00;7.7;;;2.4;;
49900;SDS011;35789;48.414;12.768;2024-02-21T05:05:00;7.7;;;2.4;;
49900;SDS011;35789;48.414;12.768;2024-02-21T05:10:00;7.7;;;2.4;;
49900;SDS011;35789;48.414;12.768;2024-02-21T05:15:00;7.7;;;2.4;;
49900;SDS011;35789;48.414;12.768;2024-02-21T05:20:00;7.7;;;2.4;;
49900;SDS011;35789;48.414;12.768;2024-02-21T05:25:00;7.7;;;2.4;;
49900;SDS011;35789;48.414;12.768;2024-02-21T05:30:00;8.2;;;3.0;;
49900;SDS011;35789;48.414;12.768;2024-02-21T05:35:00;8.2;;;3.0;;
49900;SDS011;35789;48.414;12.768;2024-02-21T05:40:00;8.2;;;3.0;;
49900;SDS011;35789;48.414;12.768;2024-02-21T05:45:00;8.2;;;3.0;;
49900;SDS011;35789;48.414;12.768;2024-02-21T05:50:00;8.2;;;3.0;;
49900;SDS011;35789;48.414;12.768;2024-02-21T05:55:00;8.2;;;3.0;;
49900;SDS011;35789;48.414;12.768;2024-02-21T06:00:03;10.1;;;2.3;;
49900;SDS011;35789;48.414;12.768;2024-02-21T06:05:00;10.1;;;2.3;;
49900;SDS011;35789;48.414;12.768;2024-02-21T06:10:01;10.1;;;2.3;;
49900;SDS011;35789;48.414;12.768;2024-02-21T06:15:00;10.1;;;2.3;;
49900;SDS011;35789;48.414;12.768;2024-02-21T06:20:00;10.1;;;2.3;;
49900;SDS011;35789;48.414;12.768;2024-02-21T06:25:00;10.1;;;2.3;;
49900;SDS011;35789;48.414;12.768;2024-02-21T06:30:00;8.0;;;3.3;;
49900;SDS011;35789;48.414;12.768;2024-02-21T06:35:00;8.0;;;3.3;;
49900;SDS011;35789;48.414;12.768;2024-02-21T06:40:00;8.0;;;3.3;;
49900;SDS011;35789;48.414;12.768;2024-02-21T06:45:00;8.0;;;3.3;;
49900;SDS011;35789;48.414;12.768;2024-02-21T06:50:00;8.0;;;3.3;;
49900;SDS011;35789;48.414;12.768;2024-02-21T06:55:00;8.0;;;3.3;;
49900;SDS011;35789;48.414;12.768;2024-02-21T07:00:00;8.2;;;3.4;;
49900;SDS011;35789;48.414;12.768;2024-02-21T07:05:00;8.2;;;3.4;;
49900;SDS011;35789;48.414;12.768;2024-02-21T07:10:00;8.2;;;3.4;;
49900;SDS011;35789;48.414;12.768;2024-02-21T07:15:00;8.2;;;3.4;;
49900;SDS011;35789;48.414;12.768;2024-02-21T07:20:00;8.2;;;3.4;;
49900;SDS011;35789;48.414;12.768;2024-02-21T07:25:00;8.2;;;3.4;;
49900;SDS011;35789;48.414;12.768;2024-02-21T07:30:00;6.4;;;2.8;;
49900;SDS011;35789;48.414;12.768;2024-02-21T07:35:02;6.4;;;2.8;;
49900;SDS011;35789;48.414;12.768;2024-02-21T07:40:00;6.4;;;2.8;;
49900;SDS011;35789;48.414;12.768;2024-02-21T07:45:00;6.4;;;2.8;;
49900;SDS011;35789;48.414;12.768;2024-02-21T07:50:01;6.4;;;2.8;;
49900;SDS011;35789;48.414;12.768;2024-02-21T07:55:00;6.4;;;2.8;;
49900;SDS011;35789;48.414;12.768;2024-02-21T08:00:00;9.2;;;2.9;;
49900;SDS011;35789;48.414;12.768;2024-02-21T08:05:00;9.2;;;2.9;;
49900;SDS011;35789;48.414;12.768;2024-02-21T08:10:00;9.2;;;2.9;;
49900;SDS011;35789;48.414;12.768;2024-02-21T08:15:00;9.2;;;2.9;;
49900;SDS011;35789;48.414;12.768;2024-02-21T08:20:00;9.2;;;2.9;;
49900;SDS011;35789;48.414;12.768;2024-02-21T08:25:00;9.2;;;2.9;;
49900;SDS011;35789;48.414;12.768;2024-02-21T08:30:00;5.5;;;2.4;;
49900;SDS011;35789;48.414;12.768;2024-02-21T08:50:01;5.5;;;2.4;;
49900;SDS011;35789;48.414;12.768;2024-02-21T09:15:00;5.5;;;2.0;;
49900;SDS011;35789;48.414;12.768;2024-02-21T09:35:00;5.1;;;1.3;;
49900;SDS011;35789;48.414;12.768;2024-02-21T09:40:00;5.1;;;1.3;;
49900;SDS011;35789;48.414;12.768;2024-02-21T09:55:01;3.5;;;1.1;;
49900;SDS011;35789;48.414;12.768;2024-02-21T10:00:00;3.5;;;1.1;;
49900;SDS011;35789;48.414;12.768;2024-02-21T10:15:01;3.5;;;1.1;;
49900;SDS011;35789;48.414;12.768;2024-02-21T10:25:06;4.9;;;1.4;;
49900;SDS011;35789;48.414;12.768;2024-02-21T10:30:00;4.9;;;1.4;;
49900;SDS011;35789;48.414;12.768;2024-02-21T10:35:01;4.9;;;1.4;;
49900;SDS011;35789;48.414;12.768;2024-02-21T10:40:00;4.9;;;1.4;;
49900;SDS011;35789;48.414;12.768;2024-02-21T10:45:01;4.9;;;1.4;;
49900;SDS011;35789;48.414;12.768;2024-02-21T10:50:03;4.9;;;1.4;;
49900;SDS011;35789;48.414;12.768;2024-02-21T10:55:04;5.5;;;1.4;;
49900;SDS011;35789;48.414;12.768;2024-02-21T11:00:00;5.5;;;1.4;;
49900;SDS011;35789;48.414;12.768;2024-02-21T11:05:01;5.5;;;1.4;;
49900;SDS011;35789;48.414;12.768;2024-02-21T11:10:00;5.5;;;1.4;;
49900;SDS011;35789;48.414;12.768;2024-02-21T11:15:04;5.5;;;1.4;;
49900;SDS011;35789;48.414;12.768;2024-02-21T11:20:10;5.5;;;1.4;;
49900;SDS011;35789;48.414;12.768;2024-02-21T11:25:06;5.9;;;1.6;;
49900;SDS011;35789;48.414;12.768;2024-02-21T11:30:04;5.9;;;1.6;;
49900;SDS011;35789;48.414;12.768;2024-02-21T11:35:01;5.9;;;1.6;;
49900;SDS011;35789;48.414;12.768;2024-02-21T11:40:00;5.9;;;1.6;;
49900;SDS011;35789;48.414;12.768;2024-02-21T11:45:00;5.9;;;1.6;;
49900;SDS011;35789;48.414;12.768;2024-02-21T11:55:00;5.7;;;1.3;;
49900;SDS011;35789;48.414;12.768;2024-02-21T12:00:11;5.7;;;1.3;;
49900;SDS011;35789;48.414;12.768;2024-02-21T12:05:00;5.7;;;1.3;;
49900;SDS011;35789;48.414;12.768;2024-02-21T12:15:01;5.7;;;1.3;;
49900;SDS011;35789;48.414;12.768;2024-02-21T12:20:01;5.7;;;1.3;;
49900;SDS011;35789;48.414;12.768;2024-02-21T12:25:02;4.9;;;1.2;;
49900;SDS011;35789;48.414;12.768;2024-02-21T12:30:00;4.9;;;1.2;;
49900;SDS011;35789;48.414;12.768;2024-02-21T12:35:00;4.9;;;1.2;;
49900;SDS011;35789;48.414;12.768;2024-02-21T12:40:00;4.9;;;1.2;;
49900;SDS011;35789;48.414;12.768;2024-02-21T12:45:02;4.9;;;1.2;;
49900;SDS011;35789;48.414;12.768;2024-02-21T12:50:00;4.9;;;1.2;;
49900;SDS011;35789;48.414;12.768;2024-02-21T12:55:00;6.4;;;1.4;;
49900;SDS011;35789;48.414;12.768;2024-02-21T13:00:00;6.4;;;1.4;;
49900;SDS011;35789;48.414;12.768;2024-02-21T13:05:00;6.4;;;1.4;;
49900;SDS011;35789;48.414;12.768;2024-02-21T13:10:00;6.4;;;1.4;;
49900;SDS011;35789;48.414;12.768;2024-02-21T13:15:00;6.4;;;1.4;;
49900;SDS011;35789;48.414;12.768;2024-02-21T13:20:00;6.4;;;1.4;;
49900;SDS011;35789;48.414;12.768;2024-02-21T13:25:00;5.2;;;1.2;;
49900;SDS011;35789;48.414;12.768;2024-02-21T13:30:00;5.2;;;1.2;;
49900;SDS011;35789;48.414;12.768;2024-02-21T13:35:00;5.2;;;1.2;;
49900;SDS011;35789;48.414;12.768;2024-02-21T13:40:00;5.2;;;1.2;;
49900;SDS011;35789;48.414;12.768;2024-02-21T13:45:00;5.2;;;1.2;;
49900;SDS011;35789;48.414;12.768;2024-02-21T13:50:00;5.2;;;1.2;;
49900;SDS011;35789;48.414;12.768;2024-02-21T13:55:00;4.2;;;1.1;;
49900;SDS011;35789;48.414;12.768;2024-02-21T14:00:00;4.2;;;1.1;;
49900;SDS011;35789;48.414;12.768;2024-02-21T14:05:00;4.2;;;1.1;;
49900;SDS011;35789;48.414;12.768;2024-02-21T14:10:00;4.2;;;1.1;;
49900;SDS011;35789;48.414;12.768;2024-02-21T14:15:01;4.2;;;1.1;;
49900;SDS011;35789;48.414;12.768;2024-02-21T14:20:00;4.2;;;1.1;;
49900;SDS011;35789;48.414;12.768;2024-02-21T14:30:00;3.3;;;1.0;;
49900;SDS011;35789;48.414;12.768;2024-02-21T14:35:00;3.3;;;1.0;;
49900;SDS011;35789;48.414;12.768;2024-02-21T14:40:00;3.3;;;1.0;;
49900;SDS011;35789;48.414;12.768;2024-02-21T14:45:00;3.3;;;1.0;;
49900;SDS011;35789;48.414;12.768;2024-02-21T14:50:02;3.3;;;1.0;;
49900;SDS011;35789;48.414;12.768;2024-02-21T14:55:00;3.6;;;0.9;;
49900;SDS011;35789;48.414;12.768;2024-02-21T15:00:00;3.6;;;0.9;;
49900;SDS011;35789;48.414;12.768;2024-02-21T15:05:00;3.6;;;0.9;;
49900;SDS011;35789;48.414;12.768;2024-02-21T15:10:01;3.6;;;0.9;;
49900;SDS011;35789;48.414;12.768;2024-02-21T15:15:00;3.6;;;0.9;;
49900;SDS011;35789;48.414;12.768;2024-02-21T15:20:00;3.6;;;0.9;;
49900;SDS011;35789;48.414;12.768;2024-02-21T15:25:00;4.6;;;1.6;;
49900;SDS011;35789;48.414;12.768;2024-02-21T15:30:02;4.6;;;1.6;;
49900;SDS011;35789;48.414;12.768;2024-02-21T15:35:00;4.6;;;1.6;;
49900;SDS011;35789;48.414;12.768;2024-02-21T15:40:00;4.6;;;1.6;;
49900;SDS011;35789;48.414;12.768;2024-02-21T15:45:00;4.6;;;1.6;;
49900;SDS011;35789;48.414;12.768;2024-02-21T15:50:00;4.6;;;1.6;;
49900;SDS011;35789;48.414;12.768;2024-02-21T16:00:00;11.2;;;4.8;;
49900;SDS011;35789;48.414;12.768;2024-02-21T16:05:00;11.2;;;4.8;;
49900;SDS011;35789;48.414;12.768;2024-02-21T16:10:00;11.2;;;4.8;;
49900;SDS011;35789;48.414;12.768;2024-02-21T16:15:00;11.2;;;4.8;;
49900;SDS011;35789;48.414;12.768;2024-02-21T16:20:01;11.2;;;4.8;;
49900;SDS011;35789;48.414;12.768;2024-02-21T16:25:00;3.0;;;0.7;;
49900;SDS011;35789;48.414;12.768;2024-02-21T16:30:00;3.0;;;0.7;;
49900;SDS011;35789;48.414;12.768;2024-02-21T16:35:00;3.0;;;0.7;;
49900;SDS011;35789;48.414;12.768;2024-02-21T16:45:00;3.0;;;0.7;;
49900;SDS011;35789;48.414;12.768;2024-02-21T16:50:00;3.0;;;0.7;;
49900;SDS011;35789;48.414;12.768;2024-02-21T16:55:00;6.8;;;2.2;;
49900;SDS011;35789;48.414;12.768;2024-02-21T17:00:00;6.8;;;2.2;;
49900;SDS011;35789;48.414;12.768;2024-02-21T17:05:00;6.8;;;2.2;;
49900;SDS011;35789;48.414;12.768;2024-02-21T17:10:00;6.8;;;2.2;;
49900;SDS011;35789;48.414;12.768;2024-02-21T17:15:00;6.8;;;2.2;;
49900;SDS011;35789;48.414;12.768;2024-02-21T17:20:00;6.8;;;2.2;;
49900;SDS011;35789;48.414;12.768;2024-02-21T17:25:00;5.3;;;1.4;;
